Time;durP1;ratioP1;P1;durP2;ratioP2;P2;SDS_P1;SDS_P2;PMS_P1;PMS_P2;Temp;Humidity;BMP_temperature;BMP_pressure;BME280_temperature;BME280_humidity;BME280_pressure;Samples;Min_cycle;Max_cycle;Signal;HPM_P1;HPM_P2
2022/09/03 00:00:08;;;;;;;19.35;10.50;;;15.20;99.90;;;;;;5117640;28;20023;-58
2022/09/03 00:02:51;;;;;;;20.27;11.23;;;15.20;99.90;;;;;;5117544;28;20515;-58
2022/09/03 00:06:08;;;;;;;30.75;11.30;;;15.20;99.90;;;;;;5117838;28;20027;-58
2022/09/03 00:08:58;;;;;;;23.67;11.10;;;15.20;99.90;;;;;;5080156;28;20366;-58
2022/09/03 00:12:08;;;;;;;27.00;11.32;;;15.10;99.90;;;;;;5107322;28;20047;-57
2022/09/03 00:14:46;;;;;;;17.67;10.20;;;15.20;99.90;;;;;;5110002;28;20040;-58
2022/09/03 00:17:29;;;;;;;25.92;10.82;;;15.20;99.90;;;;;;5117514;28;20028;-58
2022/09/03 00:20:04;;;;;;;20.15;10.63;;;15.20;99.90;;;;;;5117525;28;20034;-58
2022/09/03 00:22:43;;;;;;;21.27;10.10;;;15.20;99.90;;;;;;5117626;28;20034;-58
2022/09/03 00:25:19;;;;;;;18.75;8.95;;;15.30;99.90;;;;;;5117404;28;20034;-58
2022/09/03 00:27:54;;;;;;;16.15;10.40;;;15.30;99.90;;;;;;5116249;28;20028;-58
2022/09/03 00:30:23;;;;;;;16.20;9.73;;;15.20;99.90;;;;;;5117366;28;20034;-58
2022/09/03 00:32:48;;;;;;;21.75;10.88;;;15.20;99.90;;;;;;5116983;28;20160;-57
2022/09/03 00:35:42;;;;;;;22.95;11.23;;;15.10;99.90;;;;;;5117439;28;20032;-58
2022/09/03 00:38:08;;;;;;;17.55;9.57;;;15.20;99.90;;;;;;5117253;28;20027;-57
2022/09/03 00:41:07;;;;;;;20.27;9.05;;;15.20;99.90;;;;;;5117116;28;20030;-58
2022/09/03 00:43:59;;;;;;;16.65;9.45;;;15.20;99.90;;;;;;5117179;28;20015;-58
2022/09/03 00:46:40;;;;;;;22.90;9.38;;;15.20;99.90;;;;;;5117040;28;20023;-58
2022/09/03 00:49:30;;;;;;;19.25;10.20;;;15.30;99.90;;;;;;5116937;28;20032;-58
2022/09/03 00:52:10;;;;;;;17.08;9.40;;;15.20;99.90;;;;;;5116792;28;20184;-58
2022/09/03 00:54:55;;;;;;;27.00;10.40;;;15.20;99.90;;;;;;5116924;28;20492;-58
2022/09/03 00:57:24;;;;;;;23.63;10.75;;;15.20;99.90;;;;;;5117000;28;20461;-58
2022/09/03 01:00:10;;;;;;;22.95;10.93;;;15.10;99.90;;;;;;5116715;28;20054;-57
2022/09/03 01:02:56;;;;;;;22.88;10.43;;;15.20;99.90;;;;;;5116744;28;20473;-58
2022/09/03 01:05:40;;;;;;;24.63;10.98;;;15.20;99.90;;;;;;5116827;28;20024;-57
2022/09/03 01:08:31;;;;;;;30.35;11.30;;;15.10;99.90;;;;;;5116626;27;20020;-58
2022/09/03 01:11:00;;;;;;;;;;;15.00;99.90;;;;;;5117049;28;20115;-58
2022/09/03 01:13:56;;;;;;;28.00;11.65;;;15.10;99.90;;;;;;5116548;28;19914;-58
2022/09/03 01:16:52;;;;;;;22.23;11.13;;;15.10;99.90;;;;;;5109421;28;20043;-58
2022/09/03 01:19:36;;;;;;;27.58;10.75;;;15.10;99.90;;;;;;5116293;28;20027;-58
2022/09/03 01:22:27;;;;;;;30.50;13.32;;;15.10;99.90;;;;;;5116313;28;20048;-58
2022/09/03 01:25:20;;;;;;;23.00;11.02;;;15.10;99.90;;;;;;5116339;28;20423;-58
2022/09/03 01:28:13;;;;;;;29.40;13.73;;;15.00;99.90;;;;;;5116030;28;20134;-58
2022/09/03 01:30:45;;;;;;;39.53;17.08;;;15.10;99.90;;;;;;5114889;28;20077;-58
2022/09/03 01:33:20;;;;;;;56.08;17.38;;;15.10;99.90;;;;;;5116054;28;20480;-58
2022/09/03 01:35:49;;;;;;;37.83;17.25;;;15.00;99.90;;;;;;5116064;28;20035;-58
2022/09/03 01:38:42;;;;;;;55.15;18.42;;;14.90;99.90;;;;;;5114749;28;20046;-58
2022/09/03 01:44:20;;;;;;;48.08;17.13;;;15.00;99.90;;;;;;5115471;28;20023;-58
2022/09/03 01:46:50;;;;;;;40.35;17.55;;;15.00;99.90;;;;;;5115922;28;20056;-58
2022/09/03 01:49:27;;;;;;;43.40;17.30;;;14.90;99.90;;;;;;5115690;28;20048;-58
2022/09/03 01:52:05;;;;;;;36.15;17.92;;;15.00;99.90;;;;;;5115809;28;20019;-57
2022/09/03 01:55:05;;;;;;;57.47;17.95;;;14.90;99.90;;;;;;5115791;28;20073;-57
2022/09/03 01:57:46;;;;;;;48.15;18.95;;;15.00;99.90;;;;;;5115738;28;20023;-57
2022/09/03 02:00:19;;;;;;;39.75;16.92;;;15.00;99.90;;;;;;5115423;28;20330;-57
2022/09/03 02:02:47;;;;;;;32.58;14.23;;;15.00;99.90;;;;;;5115771;28;20034;-57
2022/09/03 02:05:19;;;;;;;34.97;14.35;;;15.00;99.90;;;;;;5115399;28;20043;-57
2022/09/03 02:08:08;;;;;;;34.08;13.23;;;14.90;99.90;;;;;;5115528;28;20058;-57
2022/09/03 02:10:39;;;;;;;33.45;14.13;;;14.90;99.90;;;;;;5107093;28;20042;-58
2022/09/03 02:13:13;;;;;;;;;;;15.00;99.90;;;;;;5115918;28;20035;-57
2022/09/03 02:15:44;;;;;;;40.53;14.07;;;15.00;99.90;;;;;;5115200;28;19908;-57
2022/09/03 02:18:14;;;;;;;;;;;15.10;99.90;;;;;;5115804;28;20130;-58
2022/09/03 02:20:40;;;;;;;36.65;13.55;;;15.10;99.90;;;;;;5115272;28;19950;-57
2022/09/03 02:23:06;;;;;;;31.75;12.75;;;15.10;99.90;;;;;;5115224;28;20524;-58
2022/09/03 02:25:37;;;;;;;32.33;13.82;;;15.20;99.90;;;;;;5115332;28;20054;-57
2022/09/03 02:28:06;;;;;;;30.55;13.45;;;15.20;99.90;;;;;;5115126;28;20031;-57
2022/09/03 02:30:32;;;;;;;31.33;13.40;;;15.20;99.90;;;;;;5115132;28;20110;-57
2022/09/03 02:32:59;;;;;;;28.10;12.52;;;15.20;99.90;;;;;;5115167;28;20046;-57
2022/09/03 02:35:25;;;;;;;28.50;13.88;;;15.20;99.90;;;;;;5115125;28;20031;-58
2022/09/03 02:37:51;;;;;;;27.08;12.60;;;15.10;99.90;;;;;;5115038;28;20035;-57
2022/09/03 02:40:17;;;;;;;28.33;13.23;;;15.10;99.90;;;;;;5114980;28;20384;-58
2022/09/03 02:42:45;;;;;;;32.88;13.95;;;15.10;99.90;;;;;;5114949;28;20026;-57
2022/09/03 02:45:26;;;;;;;35.42;14.10;;;15.10;99.90;;;;;;5115078;28;20024;-57
2022/09/03 02:47:55;;;;;;;35.45;13.30;;;15.10;99.90;;;;;;5114942;28;20024;-58
2022/09/03 02:50:23;;;;;;;30.65;13.02;;;15.10;99.90;;;;;;5114840;28;20077;-58
2022/09/03 02:52:49;;;;;;;28.75;13.70;;;15.20;99.90;;;;;;5114949;28;20423;-57
2022/09/03 02:55:16;;;;;;;26.80;13.57;;;15.20;99.90;;;;;;5114817;28;20473;-57
2022/09/03 02:57:42;;;;;;;26.38;12.05;;;15.10;99.90;;;;;;5119191;28;20080;-58
2022/09/03 03:00:08;;;;;;;25.70;11.38;;;15.10;99.90;;;;;;5119217;28;20108;-57
2022/09/03 03:02:34;;;;;;;24.17;11.23;;;15.10;99.90;;;;;;5117795;28;20023;-57
2022/09/03 03:05:01;;;;;;;41.92;17.75;;;15.10;99.90;;;;;;5119073;28;20388;-58
2022/09/03 03:07:30;;;;;;;57.20;21.42;;;15.10;99.90;;;;;;5118982;28;20384;-58
2022/09/03 03:09:57;;;;;;;76.97;25.90;;;15.10;99.90;;;;;;5118933;28;20028;-58
2022/09/03 03:12:24;;;;;;;72.65;25.63;;;15.20;99.90;;;;;;5118898;28;20074;-58
2022/09/03 03:14:49;;;;;;;78.43;26.70;;;15.20;99.90;;;;;;5118804;28;20035;-58
2022/09/03 03:17:15;;;;;;;88.45;26.33;;;15.10;99.90;;;;;;5118830;28;20028;-58
2022/09/03 03:19:41;;;;;;;48.55;19.08;;;15.10;99.90;;;;;;5117348;28;20031;-57
2022/09/03 03:22:07;;;;;;;38.38;15.82;;;15.10;99.90;;;;;;5118452;28;20111;-57
2022/09/03 03:24:33;;;;;;;54.25;18.98;;;15.00;99.90;;;;;;5118780;28;20028;-57
2022/09/03 03:26:59;;;;;;;44.28;17.40;;;15.00;99.90;;;;;;5118603;28;20510;-58
2022/09/03 03:29:25;;;;;;;42.00;17.27;;;15.00;99.90;;;;;;5118477;28;20031;-57
2022/09/03 03:31:51;;;;;;;56.88;20.73;;;15.00;99.90;;;;;;5118432;28;20457;-57
2022/09/03 03:34:17;;;;;;;56.47;20.30;;;15.00;99.90;;;;;;5118589;28;20081;-58
2022/09/03 03:36:43;;;;;;;74.00;25.98;;;15.10;99.90;;;;;;5118357;28;20023;-57
2022/09/03 03:39:09;;;;;;;89.85;27.67;;;15.20;99.90;;;;;;5118236;28;20376;-57
2022/09/03 03:41:36;;;;;;;69.72;26.63;;;15.10;99.90;;;;;;5118181;28;20024;-57
2022/09/03 03:44:05;;;;;;;70.63;25.75;;;15.20;99.90;;;;;;5118343;28;20425;-57
2022/09/03 03:46:34;;;;;;;94.53;26.52;;;15.10;99.90;;;;;;5118198;28;20110;-57
2022/09/03 03:49:00;;;;;;;69.07;25.88;;;15.10;99.90;;;;;;5117987;28;20062;-58
2022/09/03 03:51:26;;;;;;;75.15;29.35;;;15.10;99.90;;;;;;5118038;28;20035;-57
2022/09/03 03:53:55;;;;;;;79.13;29.70;;;15.00;99.90;;;;;;5118181;28;20062;-57
2022/09/03 03:56:22;;;;;;;92.00;29.63;;;15.00;99.90;;;;;;5118046;28;20106;-57
2022/09/03 03:58:48;;;;;;;96.15;29.30;;;15.10;99.90;;;;;;5118050;27;20085;-57
2022/09/03 04:01:20;;;;;;;100.90;30.92;;;15.10;99.90;;;;;;5117840;28;20455;-57
2022/09/03 04:03:47;;;;;;;81.90;31.27;;;15.10;99.90;;;;;;5117922;27;20484;-57
2022/09/03 04:06:16;;;;;;;98.55;30.55;;;15.20;99.90;;;;;;5117835;28;20015;-57
2022/09/03 04:08:44;;;;;;;88.72;30.98;;;15.20;99.90;;;;;;5117086;27;20516;-57
2022/09/03 04:11:13;;;;;;;110.18;31.70;;;15.10;99.90;;;;;;5116500;28;20036;-57
2022/09/03 04:13:41;;;;;;;103.43;32.00;;;15.00;99.90;;;;;;5117633;27;20028;-57
2022/09/03 04:16:13;;;;;;;113.47;30.63;;;14.90;99.90;;;;;;5117742;28;20028;-57
2022/09/03 04:18:39;;;;;;;90.03;28.58;;;14.90;99.90;;;;;;5117436;28;20084;-57
2022/09/03 04:21:13;;;;;;;87.90;31.30;;;15.00;99.90;;;;;;5117582;28;20085;-57
2022/09/03 04:23:42;;;;;;;112.43;38.33;;;15.00;99.90;;;;;;5117529;28;20518;-57
2022/09/03 04:26:10;;;;;;;119.88;38.53;;;15.10;99.90;;;;;;5117353;28;20026;-57
2022/09/03 04:28:36;;;;;;;110.53;35.10;;;15.00;99.90;;;;;;5117526;28;20342;-57
2022/09/03 04:31:08;;;;;;;118.68;42.90;;;15.00;99.90;;;;;;5117260;28;20038;-57
2022/09/03 04:33:36;;;;;;;102.88;37.10;;;15.10;99.90;;;;;;5117345;28;20028;-57
2022/09/03 04:36:18;;;;;;;104.50;37.05;;;15.10;99.90;;;;;;5117292;28;20072;-57
2022/09/03 04:38:46;;;;;;;44.30;22.58;;;15.10;99.90;;;;;;5117269;28;20464;-57
2022/09/03 04:41:20;;;;;;;72.60;28.77;;;15.10;99.90;;;;;;5117112;28;20643;-57
2022/09/03 04:43:47;;;;;;;43.97;21.10;;;15.10;99.90;;;;;;5117233;28;20028;-57
2022/09/03 04:46:15;;;;;;;86.05;30.05;;;15.00;99.90;;;;;;5117075;28;20045;-57
2022/09/03 04:48:41;;;;;;;99.85;33.13;;;15.10;99.90;;;;;;5117073;28;20034;-58
2022/09/03 04:51:10;;;;;;;110.90;35.88;;;15.10;99.90;;;;;;5116823;28;20139;-57
2022/09/03 04:53:42;;;;;;;100.28;34.03;;;15.10;99.90;;;;;;5116967;28;20055;-57
2022/09/03 04:56:28;;;;;;;94.57;32.88;;;15.20;99.90;;;;;;5116967;28;20485;-57
2022/09/03 04:59:00;;;;;;;99.82;32.78;;;15.20;99.90;;;;;;5115554;28;20524;-58
2022/09/03 05:01:28;;;;;;;97.15;30.17;;;15.20;99.90;;;;;;5116650;28;20058;-57
2022/09/03 05:03:58;;;;;;;85.65;30.85;;;15.20;99.90;;;;;;5116782;28;20023;-57
2022/09/03 05:06:25;;;;;;;62.88;27.92;;;15.30;99.90;;;;;;5116634;28;20023;-57
2022/09/03 05:08:53;;;;;;;64.60;24.92;;;15.30;99.90;;;;;;5116627;28;20068;-57
2022/09/03 05:11:19;;;;;;;85.57;31.33;;;15.20;99.90;;;;;;5116816;28;20035;-58
2022/09/03 05:13:50;;;;;;;103.53;36.70;;;15.30;99.90;;;;;;5116531;28;20027;-57
2022/09/03 05:16:17;;;;;;;106.18;36.47;;;15.30;99.90;;;;;;5116595;28;20038;-57
2022/09/03 05:18:44;;;;;;;109.85;39.05;;;15.30;99.90;;;;;;5116092;28;20408;-57
2022/09/03 05:21:15;;;;;;;104.90;37.40;;;15.30;99.90;;;;;;5115440;28;20107;-58
2022/09/03 05:23:43;;;;;;;126.50;41.47;;;15.30;99.90;;;;;;5116300;28;20051;-57
2022/09/03 05:26:13;;;;;;;141.63;43.05;;;15.30;99.90;;;;;;5116257;28;20354;-58
2022/09/03 05:28:41;;;;;;;133.77;41.92;;;15.30;99.90;;;;;;5116116;28;20411;-58
2022/09/03 05:31:19;;;;;;;107.43;36.40;;;15.40;99.90;;;;;;5116131;28;20431;-57
2022/09/03 05:33:50;;;;;;;83.70;31.73;;;15.40;99.90;;;;;;5115978;28;20027;-57
2022/09/03 05:36:19;;;;;;;83.97;33.90;;;15.30;99.90;;;;;;5116046;28;20031;-57
2022/09/03 05:38:46;;;;;;;85.43;33.15;;;15.40;99.90;;;;;;5116092;28;20350;-57
2022/09/03 05:41:13;;;;;;;91.18;34.40;;;15.60;99.90;;;;;;5115783;28;20019;-57
2022/09/03 05:43:40;;;;;;;87.53;34.00;;;15.50;99.90;;;;;;5115845;28;20023;-57
2022/09/03 05:46:10;;;;;;;86.88;33.70;;;15.40;99.90;;;;;;5115836;28;20024;-57
2022/09/03 05:48:38;;;;;;;94.63;37.83;;;15.50;99.90;;;;;;5115934;28;20034;-57
2022/09/03 05:51:10;;;;;;;85.90;36.33;;;15.50;99.90;;;;;;5115767;28;20129;-58
2022/09/03 05:53:38;;;;;;;97.40;36.17;;;15.60;99.90;;;;;;5115641;28;20027;-57
2022/09/03 05:56:11;;;;;;;102.53;37.15;;;15.60;99.90;;;;;;5115679;27;20065;-57
2022/09/03 05:58:40;;;;;;;102.10;35.00;;;15.60;99.90;;;;;;5115551;28;20020;-57
2022/09/03 06:01:15;;;;;;;91.65;37.92;;;15.70;99.90;;;;;;5115557;28;20383;-57
2022/09/03 06:03:42;;;;;;;88.10;36.25;;;15.60;99.90;;;;;;5115666;28;20028;-58
2022/09/03 06:06:09;;;;;;;87.43;33.33;;;15.70;99.90;;;;;;5115460;28;20047;-57
2022/09/03 06:08:37;;;;;;;89.65;35.70;;;15.70;99.90;;;;;;5115647;27;20028;-57
2022/09/03 06:11:04;;;;;;;78.75;33.83;;;15.70;99.90;;;;;;5115386;28;20031;-57
2022/09/03 06:13:31;;;;;;;81.75;33.22;;;15.80;99.90;;;;;;5115477;28;20024;-57
2022/09/03 06:15:58;;;;;;;97.28;35.92;;;15.80;99.90;;;;;;5115523;28;20058;-57
2022/09/03 06:18:28;;;;;;;83.70;34.60;;;15.90;99.90;;;;;;5115382;28;20024;-57
2022/09/03 06:21:06;;;;;;;89.60;35.63;;;16.00;99.90;;;;;;5115213;28;20038;-58
2022/09/03 06:23:33;;;;;;;86.15;36.60;;;16.00;99.90;;;;;;5115321;28;20024;-58
2022/09/03 06:26:11;;;;;;;98.70;35.58;;;16.20;99.90;;;;;;5115475;28;20069;-57
2022/09/03 06:28:40;;;;;;;88.05;36.47;;;16.10;99.90;;;;;;5115223;28;20484;-58
2022/09/03 06:31:08;;;;;;;84.30;39.83;;;16.20;99.90;;;;;;5114789;28;20044;-57
2022/09/03 06:33:36;;;;;;;88.05;37.15;;;16.30;99.90;;;;;;5115093;28;20023;-58
2022/09/03 06:36:05;;;;;;;95.47;38.90;;;16.30;99.90;;;;;;5115007;28;20035;-57
2022/09/03 06:38:36;;;;;;;93.50;42.42;;;16.30;99.90;;;;;;5115067;28;20023;-58
2022/09/03 06:41:25;;;;;;;100.30;42.45;;;16.30;99.90;;;;;;5114917;28;20028;-57
2022/09/03 06:43:53;;;;;;;97.35;41.35;;;16.30;99.90;;;;;;5113815;28;20032;-58
2022/09/03 06:46:21;;;;;;;84.68;42.63;;;16.50;99.90;;;;;;5114935;28;20047;-57
2022/09/03 06:48:49;;;;;;;98.72;41.30;;;16.60;99.90;;;;;;5114896;28;20027;-57
2022/09/03 06:51:24;;;;;;;103.72;40.80;;;16.60;99.90;;;;;;5114995;28;20131;-58
2022/09/03 06:53:55;;;;;;;87.72;38.88;;;16.80;99.90;;;;;;5114666;28;20143;-58
2022/09/03 06:56:25;;;;;;;86.25;38.40;;;17.00;99.90;;;;;;5114972;28;20066;-57
2022/09/03 06:58:55;;;;;;;73.50;38.50;;;17.20;99.90;;;;;;5114829;28;20085;-57
2022/09/03 07:01:23;;;;;;;;;;;17.40;99.90;;;;;;5115203;28;20030;-58
2022/09/03 07:03:56;;;;;;;84.78;38.15;;;17.60;99.90;;;;;;5114917;28;19911;-57
2022/09/03 07:06:26;;;;;;;86.10;38.40;;;17.80;99.90;;;;;;5114776;28;20129;-58
2022/09/03 07:08:53;;;;;;;62.85;32.28;;;18.00;99.90;;;;;;5114854;28;20023;-58
2022/09/03 07:11:22;;;;;;;56.28;30.30;;;18.10;99.90;;;;;;5114655;28;20035;-58
2022/09/03 07:13:50;;;;;;;72.07;34.03;;;18.30;99.90;;;;;;5114689;28;20040;-58
2022/09/03 07:16:22;;;;;;;56.45;31.85;;;18.40;99.90;;;;;;5114775;28;20028;-58
2022/09/03 07:18:48;;;;;;;64.50;31.90;;;18.60;99.90;;;;;;5114666;28;20039;-58
2022/09/03 07:21:17;;;;;;;57.30;30.77;;;18.70;99.90;;;;;;5114336;28;20086;-58
2022/09/03 07:23:43;;;;;;;58.03;32.60;;;19.00;99.90;;;;;;5114637;28;20026;-58
2022/09/03 07:26:14;;;;;;;60.05;31.55;;;19.10;99.90;;;;;;5114562;28;20116;-58
2022/09/03 07:28:42;;;;;;;62.20;32.58;;;19.50;99.90;;;;;;5114612;28;20397;-58
2022/09/03 07:31:18;;;;;;;59.92;30.73;;;19.80;99.90;;;;;;5114436;28;20028;-58
2022/09/03 07:33:45;;;;;;;69.93;33.47;;;20.30;99.90;;;;;;5114690;28;20036;-58
2022/09/03 07:36:13;;;;;;;95.72;37.47;;;20.70;99.90;;;;;;5114411;28;20038;-58
2022/09/03 07:38:40;;;;;;;49.80;28.35;;;21.00;99.90;;;;;;5114371;28;20513;-58
2022/09/03 07:41:08;;;;;;;46.60;25.42;;;21.00;99.90;;;;;;5114438;28;20027;-58
2022/09/03 07:43:42;;;;;;;53.42;29.25;;;20.90;99.90;;;;;;5116434;28;20447;-58
2022/09/03 07:46:12;;;;;;;53.28;29.08;;;21.20;99.90;;;;;;5118263;28;20052;-58
2022/09/03 07:48:39;;;;;;;55.58;30.60;;;21.60;99.90;;;;;;5118258;28;20084;-58
2022/09/03 07:51:06;;;;;;;55.80;28.65;;;21.80;99.80;;;;;;5117883;28;20055;-58
2022/09/03 07:53:33;;;;;;;58.08;30.33;;;21.70;99.90;;;;;;5118136;28;20054;-58
2022/09/03 07:56:07;;;;;;;59.90;33.45;;;22.10;99.20;;;;;;5117933;28;20552;-58
2022/09/03 07:58:34;;;;;;;63.20;33.80;;;22.30;99.00;;;;;;5117977;28;20627;-58
2022/09/03 08:01:11;;;;;;;56.15;30.85;;;22.50;95.80;;;;;;5117538;28;20035;-58
2022/09/03 08:03:41;;;;;;;54.03;28.73;;;22.70;95.30;;;;;;5117630;28;20023;-58
2022/09/03 08:06:07;;;;;;;53.63;29.00;;;23.10;95.40;;;;;;5117811;28;20099;-58
2022/09/03 08:08:35;;;;;;;65.35;29.83;;;23.00;94.30;;;;;;5117977;28;20031;-58
2022/09/03 08:11:09;;;;;;;53.00;28.40;;;23.80;94.20;;;;;;5117786;28;20031;-58
2022/09/03 08:13:44;;;;;;;57.25;29.48;;;23.70;92.20;;;;;;5117636;28;20055;-58
2022/09/03 08:16:12;;;;;;;55.80;27.85;;;24.20;90.20;;;;;;5117665;28;20028;-58
2022/09/03 08:18:39;;;;;;;50.38;26.35;;;24.60;90.10;;;;;;5117640;28;20054;-58
2022/09/03 08:21:14;;;;;;;60.30;26.88;;;25.10;86.80;;;;;;5117478;28;20027;-58
2022/09/03 08:23:45;;;;;;;42.58;23.85;;;24.90;87.20;;;;;;5117620;28;20063;-58
2022/09/03 08:26:12;;;;;;;50.35;24.67;;;25.30;84.70;;;;;;5117395;28;20486;-58
2022/09/03 08:28:39;;;;;;;40.03;21.45;;;25.00;85.80;;;;;;5117370;28;20106;-58
2022/09/03 08:31:10;;;;;;;38.95;21.15;;;25.40;80.60;;;;;;5117408;28;20027;-58
2022/09/03 08:33:41;;;;;;;37.67;20.63;;;25.30;77.70;;;;;;5117251;28;20468;-58
2022/09/03 08:36:13;;;;;;;37.65;20.58;;;25.40;79.00;;;;;;5117308;28;20028;-59
2022/09/03 08:38:42;;;;;;;45.78;23.25;;;25.30;79.60;;;;;;5117260;28;20024;-58
2022/09/03 08:41:19;;;;;;;37.35;21.17;;;25.20;76.10;;;;;;5116960;28;20024;-58
2022/09/03 08:44:09;;;;;;;38.58;21.15;;;25.10;75.80;;;;;;5117158;28;20076;-58
2022/09/03 08:46:38;;;;;;;;;;;24.90;78.40;;;;;;5117667;28;20028;-58
2022/09/03 08:49:05;;;;;;;38.20;21.20;;;24.50;80.80;;;;;;5116945;28;19914;-59
2022/09/03 08:51:36;;;;;;;32.20;20.63;;;24.40;84.10;;;;;;5117187;28;20044;-58
2022/09/03 08:54:03;;;;;;;67.72;26.13;;;24.80;80.50;;;;;;5116844;28;20101;-58
2022/09/03 08:56:31;;;;;;;30.67;20.02;;;24.90;78.10;;;;;;5116867;28;20043;-58
2022/09/03 08:58:56;;;;;;;33.95;20.27;;;25.00;78.10;;;;;;5116756;28;20176;-58
2022/09/03 09:01:42;;;;;;;31.30;19.55;;;24.80;79.60;;;;;;5116742;28;20068;-58
2022/09/03 09:04:42;;;;;;;39.28;21.40;;;25.10;78.40;;;;;;5116694;28;20016;-58
2022/09/03 09:07:11;;;;;;;32.35;19.30;;;25.50;81.60;;;;;;5112593;28;20063;-58
2022/09/03 09:09:56;;;;;;;31.23;18.70;;;26.50;74.60;;;;;;5116642;28;20046;-59
2022/09/03 09:12:46;;;;;;;28.92;18.05;;;26.90;72.20;;;;;;5116540;28;20027;-58
2022/09/03 09:15:12;;;;;;;;;;;26.70;66.80;;;;;;5116910;28;20544;-58
2022/09/03 09:17:47;;;;;;;28.95;18.65;;;26.70;70.00;;;;;;5116364;28;19943;-58
2022/09/03 09:20:44;;;;;;;29.42;17.33;;;26.90;70.00;;;;;;5116321;28;20103;-58
2022/09/03 09:23:17;;;;;;;27.70;16.67;;;26.90;66.40;;;;;;5116302;28;20024;-58
2022/09/03 09:25:50;;;;;;;23.95;15.73;;;26.80;68.90;;;;;;5116284;28;20024;-58
2022/09/03 09:28:22;;;;;;;24.17;16.13;;;26.70;66.20;;;;;;5116317;28;20496;-59
2022/09/03 09:30:52;;;;;;;27.58;17.17;;;26.90;67.90;;;;;;5116367;28;20028;-58
2022/09/03 09:33:20;;;;;;;34.28;18.02;;;26.80;66.90;;;;;;5116113;28;20236;-59
2022/09/03 09:35:46;;;;;;;26.60;15.77;;;27.30;67.80;;;;;;5116127;28;20303;-59
2022/09/03 09:38:13;;;;;;;26.73;16.75;;;26.60;65.00;;;;;;5115988;28;20032;-58
2022/09/03 09:40:43;;;;;;;26.58;15.95;;;26.30;67.00;;;;;;5115911;28;20023;-58
2022/09/03 09:43:14;;;;;;;28.13;15.95;;;25.90;68.40;;;;;;5116045;28;20103;-59
2022/09/03 09:45:45;;;;;;;21.02;13.88;;;26.10;74.50;;;;;;5115843;28;20031;-59
2022/09/03 09:48:20;;;;;;;20.90;14.52;;;26.60;69.00;;;;;;5115925;28;20372;-59
2022/09/03 09:50:46;;;;;;;25.48;15.18;;;26.30;67.50;;;;;;5115693;28;20443;-59
2022/09/03 09:53:16;;;;;;;20.60;14.52;;;25.60;72.50;;;;;;5115764;28;20046;-59
2022/09/03 09:55:54;;;;;;;26.23;14.80;;;25.70;78.30;;;;;;5115701;28;20039;-59
2022/09/03 09:58:22;;;;;;;24.75;13.60;;;26.00;70.00;;;;;;5115663;28;20446;-59
2022/09/03 10:00:57;;;;;;;29.42;14.73;;;26.40;73.40;;;;;;5115434;28;20388;-58
2022/09/03 10:03:23;;;;;;;24.05;13.50;;;27.10;66.50;;;;;;5115595;28;20023;-59
2022/09/03 10:09:14;;;;;;;19.20;11.82;;;27.30;61.90;;;;;;5115607;28;20023;-59
2022/09/03 10:11:51;;;;;;;24.08;11.43;;;27.00;62.90;;;;;;5115555;28;20035;-59
2022/09/03 10:14:25;;;;;;;15.27;10.30;;;27.00;65.30;;;;;;5115424;28;20032;-59
2022/09/03 10:17:03;;;;;;;14.93;9.50;;;26.70;64.80;;;;;;5115362;28;20085;-59
2022/09/03 10:19:43;;;;;;;15.02;8.88;;;26.30;61.20;;;;;;5115675;28;20028;-59
2022/09/03 10:22:18;;;;;;;13.57;8.75;;;26.00;64.30;;;;;;5115084;27;20035;-59
2022/09/03 10:25:02;;;;;;;15.55;9.27;;;25.90;64.70;;;;;;5115289;28;20511;-59
2022/09/03 10:27:28;;;;;;;13.50;9.15;;;25.70;67.00;;;;;;5115149;28;20023;-59
2022/09/03 10:29:54;;;;;;;15.68;9.48;;;25.70;69.10;;;;;;5115231;28;20544;-59
2022/09/03 10:32:26;;;;;;;22.15;10.27;;;25.70;67.60;;;;;;5115179;28;20034;-59
2022/09/03 10:35:14;;;;;;;15.52;9.13;;;26.00;65.20;;;;;;5114967;28;20034;-59
2022/09/03 10:38:04;;;;;;;15.38;9.02;;;26.50;61.30;;;;;;5115019;28;20031;-59
2022/09/03 10:40:36;;;;;;;16.77;9.60;;;26.70;63.10;;;;;;5114903;28;20046;-59
2022/09/03 10:43:31;;;;;;;22.15;10.20;;;26.80;62.80;;;;;;5114943;28;20024;-59
2022/09/03 10:46:14;;;;;;;20.10;9.70;;;26.40;63.30;;;;;;5114942;28;20030;-59
2022/09/03 10:49:13;;;;;;;19.45;9.90;;;26.20;65.50;;;;;;5114973;28;20023;-59
2022/09/03 10:51:54;;;;;;;20.42;9.55;;;26.00;69.50;;;;;;5114943;28;20062;-59
2022/09/03 10:54:35;;;;;;;17.15;9.00;;;25.80;66.30;;;;;;5114831;28;20327;-58
2022/09/03 10:57:16;;;;;;;16.25;9.95;;;25.40;65.70;;;;;;5114866;28;20028;-59
2022/09/03 11:00:09;;;;;;;20.88;9.60;;;25.70;66.00;;;;;;5114771;28;20027;-59
2022/09/03 11:03:06;;;;;;;13.73;8.73;;;25.70;68.70;;;;;;5114934;28;20043;-59
2022/09/03 11:05:37;;;;;;;13.90;9.18;;;25.20;65.00;;;;;;5114966;28;20027;-59
2022/09/03 11:08:20;;;;;;;12.30;8.30;;;25.20;64.50;;;;;;5114835;28;20461;-59
2022/09/03 11:10:53;;;;;;;17.40;9.50;;;25.00;66.20;;;;;;5114866;28;20027;-59
2022/09/03 11:13:45;;;;;;;15.05;8.13;;;25.10;70.90;;;;;;5114809;28;20167;-59
2022/09/03 11:16:19;;;;;;;15.48;8.57;;;25.10;71.60;;;;;;5114592;28;20550;-59
2022/09/03 11:19:02;;;;;;;13.50;8.35;;;24.80;71.00;;;;;;5118812;28;20032;-59
2022/09/03 11:21:30;;;;;;;12.80;8.07;;;24.90;73.30;;;;;;5118480;28;20096;-59
2022/09/03 11:24:12;;;;;;;24.00;9.57;;;25.00;77.50;;;;;;5118814;28;20081;-59
2022/09/03 11:26:43;;;;;;;12.85;8.38;;;24.80;68.20;;;;;;5118742;28;20023;-58
2022/09/03 11:29:46;;;;;;;15.70;8.65;;;25.70;72.60;;;;;;5118723;28;20044;-58
2022/09/03 11:32:23;;;;;;;11.68;6.90;;;26.40;68.10;;;;;;5118564;28;20106;-58
2022/09/03 11:34:51;;;;;;;13.20;6.72;;;27.20;68.60;;;;;;5118655;28;20100;-59
2022/09/03 11:37:24;;;;;;;20.00;7.15;;;27.70;59.30;;;;;;5118503;28;20511;-59
2022/09/03 11:40:18;;;;;;;13.88;7.32;;;28.00;57.70;;;;;;5118405;28;20115;-59
2022/09/03 11:42:44;;;;;;;11.60;5.88;;;28.50;62.20;;;;;;5118378;27;20027;-59
2022/09/03 11:45:22;;;;;;;9.40;5.65;;;28.90;59.30;;;;;;5118311;28;20028;-59
2022/09/03 11:47:49;;;;;;;7.90;5.35;;;28.40;54.80;;;;;;5118428;28;20024;-59
2022/09/03 11:50:23;;;;;;;9.65;5.82;;;28.30;59.90;;;;;;5118167;28;20048;-59
2022/09/03 11:53:05;;;;;;;10.27;5.68;;;28.50;55.00;;;;;;5118256;28;20113;-59
2022/09/03 11:55:33;;;;;;;7.82;4.80;;;27.70;55.90;;;;;;5118073;28;20225;-59
2022/09/03 11:58:19;;;;;;;7.78;5.03;;;28.10;54.40;;;;;;5118174;28;20465;-59
2022/09/03 12:00:45;;;;;;;8.25;5.20;;;28.70;54.90;;;;;;5117750;28;20035;-59
2022/09/03 12:03:15;;;;;;;6.25;5.30;;;29.10;54.20;;;;;;5118007;28;20031;-59
2022/09/03 12:06:19;;;;;;;9.52;5.25;;;28.80;49.20;;;;;;5118056;28;20032;-59
2022/09/03 12:08:55;;;;;;;9.77;5.65;;;28.50;50.50;;;;;;5117673;28;20022;-59
2022/09/03 12:11:48;;;;;;;12.60;5.40;;;29.20;53.10;;;;;;5117868;28;20097;-59
2022/09/03 12:14:32;;;;;;;7.13;5.22;;;29.10;52.10;;;;;;5117689;28;20027;-59
2022/09/03 12:17:20;;;;;;;7.35;5.47;;;29.50;51.10;;;;;;5117661;28;20043;-59
2022/09/03 12:20:13;;;;;;;5.63;5.03;;;30.10;52.80;;;;;;5117375;28;20594;-59
2022/09/03 12:22:40;;;;;;;14.73;7.10;;;30.60;50.00;;;;;;5116398;28;20042;-59
2022/09/03 12:25:11;;;;;;;20.77;7.22;;;30.70;49.70;;;;;;5117525;28;20019;-59
2022/09/03 12:27:39;;;;;;;11.70;6.53;;;30.70;50.20;;;;;;5117521;28;20385;-59
2022/09/03 12:30:17;;;;;;;11.15;7.25;;;30.50;48.50;;;;;;5116719;28;20039;-59
2022/09/03 12:32:45;;;;;;;9.45;5.88;;;29.00;48.60;;;;;;5117295;28;20023;-59
2022/09/03 12:35:14;;;;;;;8.50;5.97;;;29.40;50.50;;;;;;5117388;28;20092;-59
2022/09/03 12:37:44;;;;;;;10.23;6.30;;;30.00;48.80;;;;;;5117302;27;20027;-59
2022/09/03 12:40:27;;;;;;;7.35;6.32;;;30.40;50.50;;;;;;5117117;28;20036;-59
2022/09/03 12:42:54;;;;;;;20.08;8.13;;;30.80;46.20;;;;;;5117146;28;20031;-59
2022/09/03 12:45:23;;;;;;;14.27;7.70;;;29.80;45.60;;;;;;5117117;28;20070;-59
2022/09/03 12:47:50;;;;;;;10.73;6.70;;;29.60;48.00;;;;;;5117206;28;20030;-59
2022/09/03 12:50:19;;;;;;;13.98;7.65;;;28.20;46.60;;;;;;5116811;28;20562;-59
2022/09/03 12:52:56;;;;;;;6.78;5.88;;;28.80;53.60;;;;;;5116991;28;20015;-59
2022/09/03 12:55:41;;;;;;;7.65;5.88;;;28.60;48.90;;;;;;5116997;28;20037;-59
2022/09/03 12:58:14;;;;;;;12.02;6.90;;;29.50;49.00;;;;;;5116889;28;20483;-59
2022/09/03 13:00:57;;;;;;;15.45;7.38;;;28.80;49.00;;;;;;5116630;28;20024;-59
2022/09/03 13:03:28;;;;;;;13.85;7.53;;;27.90;50.60;;;;;;5116741;28;20582;-59
2022/09/03 13:06:02;;;;;;;10.10;6.68;;;27.90;53.90;;;;;;5116762;28;20027;-59
2022/09/03 13:08:40;;;;;;;17.75;8.48;;;27.60;53.60;;;;;;5116626;28;20028;-59